sensor_id;sensor_type;location;lat;lon;timestamp;pressure;altitude;pressure_sealevel;temperature;humidity
42603;BME280;28233;55.748;48.752;2023-01-31T00:00:19;98264.25;;;-2.44;95.93
42603;BME280;28233;55.748;48.752;2023-01-31T00:02:21;98272.03;;;-2.42;96.15
42603;BME280;28233;55.748;48.752;2023-01-31T00:04:24;98254.56;;;-2.40;95.45
42603;BME280;28233;55.748;48.752;2023-01-31T00:06:32;98258.84;;;-2.39;95.23
42603;BME280;28233;55.748;48.752;2023-01-31T00:08:36;98260.19;;;-2.36;95.08
42603;BME280;28233;55.748;48.752;2023-01-31T00:10:38;98267.19;;;-2.40;94.55
42603;BME280;28233;55.748;48.752;2023-01-31T00:12:41;98268.00;;;-2.40;94.84
42603;BME280;28233;55.748;48.752;2023-01-31T00:14:44;98266.94;;;-2.34;94.97
42603;BME280;28233;55.748;48.752;2023-01-31T00:16:46;98265.31;;;-2.35;94.63
42603;BME280;28233;55.748;48.752;2023-01-31T00:18:49;98265.84;;;-2.38;94.80
42603;BME280;28233;55.748;48.752;2023-01-31T00:20:52;98265.59;;;-2.36;94.71
42603;BME280;28233;55.748;48.752;2023-01-31T00:22:55;98261.28;;;-2.32;94.28
42603;BME280;28233;55.748;48.752;2023-01-31T00:24:57;98264.53;;;-2.35;94.00
42603;BME280;28233;55.748;48.752;2023-01-31T00:27:00;98256.97;;;-2.38;94.01
42603;BME280;28233;55.748;48.752;2023-01-31T00:29:04;98270.16;;;-2.31;94.25
42603;BME280;28233;55.748;48.752;2023-01-31T00:31:07;98265.59;;;-2.31;93.83
42603;BME280;28233;55.748;48.752;2023-01-31T00:33:10;98268.00;;;-2.29;94.29
42603;BME280;28233;55.748;48.752;2023-01-31T00:35:12;98255.91;;;-2.32;93.58
42603;BME280;28233;55.748;48.752;2023-01-31T00:37:15;98256.16;;;-2.34;93.43
42603;BME280;28233;55.748;48.752;2023-01-31T00:39:18;98262.09;;;-2.31;94.01
42603;BME280;28233;55.748;48.752;2023-01-31T00:41:22;98260.19;;;-2.31;93.80
42603;BME280;28233;55.748;48.752;2023-01-31T00:43:25;98263.16;;;-2.38;93.22
42603;BME280;28233;55.748;48.752;2023-01-31T00:45:28;98265.31;;;-2.35;93.33
42603;BME280;28233;55.748;48.752;2023-01-31T00:47:31;98258.59;;;-2.32;93.61
42603;BME280;28233;55.748;48.752;2023-01-31T00:49:33;98257.78;;;-2.32;93.50
42603;BME280;28233;55.748;48.752;2023-01-31T00:51:37;98268.00;;;-2.29;93.41
42603;BME280;28233;55.748;48.752;2023-01-31T00:53:39;98256.44;;;-2.30;93.36
42603;BME280;28233;55.748;48.752;2023-01-31T00:55:43;98262.88;;;-2.31;93.41
42603;BME280;28233;55.748;48.752;2023-01-31T00:57:46;98263.44;;;-2.24;93.10
42603;BME280;28233;55.748;48.752;2023-01-31T00:59:48;98266.41;;;-2.25;93.31
42603;BME280;28233;55.748;48.752;2023-01-31T01:01:51;98264.78;;;-2.26;93.10
42603;BME280;28233;55.748;48.752;2023-01-31T01:03:55;98266.66;;;-2.27;92.83
42603;BME280;28233;55.748;48.752;2023-01-31T01:05:59;98255.34;;;-2.24;92.72
42603;BME280;28233;55.748;48.752;2023-01-31T01:08:01;98262.88;;;-2.26;92.83
42603;BME280;28233;55.748;48.752;2023-01-31T01:10:04;98257.25;;;-2.24;93.43
42603;BME280;28233;55.748;48.752;2023-01-31T01:12:07;98258.34;;;-2.25;93.35
42603;BME280;28233;55.748;48.752;2023-01-31T01:14:10;98258.59;;;-2.22;92.93
42603;BME280;28233;55.748;48.752;2023-01-31T01:16:18;98253.50;;;-2.23;92.67
42603;BME280;28233;55.748;48.752;2023-01-31T01:18:21;98259.38;;;-2.21;92.91
42603;BME280;28233;55.748;48.752;2023-01-31T01:20:24;98253.50;;;-2.23;92.79
42603;BME280;28233;55.748;48.752;2023-01-31T01:22:27;98248.91;;;-2.28;92.95
42603;BME280;28233;55.748;48.752;2023-01-31T01:24:30;98253.75;;;-2.25;92.89
42603;BME280;28233;55.748;48.752;2023-01-31T01:26:33;98252.66;;;-2.24;93.30
42603;BME280;28233;55.748;48.752;2023-01-31T01:28:37;98249.44;;;-2.26;92.86
42603;BME280;28233;55.748;48.752;2023-01-31T01:30:40;98257.50;;;-2.26;92.79
42603;BME280;28233;55.748;48.752;2023-01-31T01:32:42;98250.53;;;-2.27;93.59
42603;BME280;28233;55.748;48.752;2023-01-31T01:34:45;98244.59;;;-2.24;93.37
42603;BME280;28233;55.748;48.752;2023-01-31T01:36:48;98243.78;;;-2.24;93.63
42603;BME280;28233;55.748;48.752;2023-01-31T01:38:52;98252.41;;;-2.22;93.55
42603;BME280;28233;55.748;48.752;2023-01-31T01:40:54;98244.06;;;-2.21;93.76
42603;BME280;28233;55.748;48.752;2023-01-31T01:42:57;98247.81;;;-2.22;93.23
42603;BME280;28233;55.748;48.752;2023-01-31T01:45:02;98244.59;;;-2.24;93.24
42603;BME280;28233;55.748;48.752;2023-01-31T01:49:35;98232.75;;;-2.18;93.89
42603;BME280;28233;55.748;48.752;2023-01-31T01:51:39;98236.25;;;-2.22;93.54
42603;BME280;28233;55.748;48.752;2023-01-31T01:53:43;98240.03;;;-2.23;93.57
42603;BME280;28233;55.748;48.752;2023-01-31T01:55:52;98233.31;;;-2.21;93.85
42603;BME280;28233;55.748;48.752;2023-01-31T01:58:02;98227.66;;;-2.19;94.24
42603;BME280;28233;55.748;48.752;2023-01-31T02:00:27;98235.47;;;-2.23;93.94
42603;BME280;28233;55.748;48.752;2023-01-31T02:02:31;98231.44;;;-2.30;94.45
42603;BME280;28233;55.748;48.752;2023-01-31T02:04:36;98234.13;;;-2.25;94.66
42603;BME280;28233;55.748;48.752;2023-01-31T02:06:40;98227.09;;;-2.26;95.02
42603;BME280;28233;55.748;48.752;2023-01-31T02:08:43;98236.25;;;-2.22;94.37
42603;BME280;28233;55.748;48.752;2023-01-31T02:10:51;98228.44;;;-2.24;94.45
42603;BME280;28233;55.748;48.752;2023-01-31T02:12:55;98232.22;;;-2.25;94.63
42603;BME280;28233;55.748;48.752;2023-01-31T02:14:58;98229.53;;;-2.25;94.52
42603;BME280;28233;55.748;48.752;2023-01-31T02:17:01;98224.41;;;-2.21;94.86
42603;BME280;28233;55.748;48.752;2023-01-31T02:19:09;98228.47;;;-2.19;94.42
42603;BME280;28233;55.748;48.752;2023-01-31T02:21:38;98219.84;;;-2.21;94.47
42603;BME280;28233;55.748;48.752;2023-01-31T02:28:53;98229.28;;;-2.23;94.76
42603;BME280;28233;55.748;48.752;2023-01-31T02:33:43;98223.63;;;-2.22;95.43
42603;BME280;28233;55.748;48.752;2023-01-31T02:43:09;98233.84;;;-2.14;95.35
42603;BME280;28233;55.748;48.752;2023-01-31T02:45:04;98229.53;;;-2.20;95.11
42603;BME280;28233;55.748;48.752;2023-01-31T02:47:26;98227.94;;;-2.16;95.48
42603;BME280;28233;55.748;48.752;2023-01-31T02:49:40;98226.03;;;-2.15;95.55
42603;BME280;28233;55.748;48.752;2023-01-31T02:51:49;98230.88;;;-2.07;95.26
42603;BME280;28233;55.748;48.752;2023-01-31T02:54:20;98225.50;;;-2.07;95.24
42603;BME280;28233;55.748;48.752;2023-01-31T02:56:29;98229.00;;;-2.06;95.43
42603;BME280;28233;55.748;48.752;2023-01-31T02:58:36;98230.59;;;-2.00;95.16
42603;BME280;28233;55.748;48.752;2023-01-31T03:00:41;98248.63;;;-1.96;95.34
42603;BME280;28233;55.748;48.752;2023-01-31T03:02:46;98240.28;;;-1.94;95.31
42603;BME280;28233;55.748;48.752;2023-01-31T03:04:49;98244.03;;;-1.90;95.36
42603;BME280;28233;55.748;48.752;2023-01-31T03:06:59;98233.81;;;-1.93;95.37
42603;BME280;28233;55.748;48.752;2023-01-31T03:11:07;98233.28;;;-1.95;95.22
42603;BME280;28233;55.748;48.752;2023-01-31T03:13:26;98235.44;;;-1.92;95.13
42603;BME280;28233;55.748;48.752;2023-01-31T03:18:12;98240.25;;;-1.89;95.73
42603;BME280;28233;55.748;48.752;2023-01-31T03:20:25;98234.09;;;-1.89;95.71
42603;BME280;28233;55.748;48.752;2023-01-31T03:22:40;98242.97;;;-1.94;95.28
42603;BME280;28233;55.748;48.752;2023-01-31T03:24:46;98242.41;;;-1.91;95.65
42603;BME280;28233;55.748;48.752;2023-01-31T03:26:51;98231.09;;;-1.93;95.58
42603;BME280;28233;55.748;48.752;2023-01-31T03:28:56;98240.81;;;-1.92;95.31
42603;BME280;28233;55.748;48.752;2023-01-31T03:31:12;98244.88;;;-2.00;95.55
42603;BME280;28233;55.748;48.752;2023-01-31T03:33:23;98251.31;;;-1.96;96.06
42603;BME280;28233;55.748;48.752;2023-01-31T03:35:29;98248.34;;;-1.94;95.96
42603;BME280;28233;55.748;48.752;2023-01-31T03:37:52;98254.53;;;-1.94;95.83
42603;BME280;28233;55.748;48.752;2023-01-31T03:40:45;98243.78;;;-1.94;95.60
42603;BME280;28233;55.748;48.752;2023-01-31T03:44:53;98247.56;;;-2.00;95.80
42603;BME280;28233;55.748;48.752;2023-01-31T03:47:05;98259.41;;;-2.01;95.85
42603;BME280;28233;55.748;48.752;2023-01-31T03:49:10;98249.16;;;-1.99;95.65
42603;BME280;28233;55.748;48.752;2023-01-31T03:51:20;98258.59;;;-2.01;95.58
42603;BME280;28233;55.748;48.752;2023-01-31T03:53:32;98255.09;;;-2.07;95.87
42603;BME280;28233;55.748;48.752;2023-01-31T03:55:40;98264.53;;;-2.04;95.12
42603;BME280;28233;55.748;48.752;2023-01-31T03:57:51;98250.25;;;-2.00;95.12
42603;BME280;28233;55.748;48.752;2023-01-31T03:59:57;98253.75;;;-1.99;94.66
42603;BME280;28233;55.748;48.752;2023-01-31T04:02:02;98258.59;;;-2.01;94.29
42603;BME280;28233;55.748;48.752;2023-01-31T04:04:11;98256.44;;;-1.99;94.53
42603;BME280;28233;55.748;48.752;2023-01-31T04:06:16;98254.56;;;-1.99;93.26
42603;BME280;28233;55.748;48.752;2023-01-31T04:08:19;98270.97;;;-1.95;92.61
42603;BME280;28233;55.748;48.752;2023-01-31T04:10:22;98279.84;;;-1.95;91.93
42603;BME280;28233;55.748;48.752;2023-01-31T04:12:26;98273.38;;;-1.94;90.97
42603;BME280;28233;55.748;48.752;2023-01-31T04:14:29;98270.69;;;-1.94;90.42
42603;BME280;28233;55.748;48.752;2023-01-31T04:16:32;98283.88;;;-1.92;89.99
42603;BME280;28233;55.748;48.752;2023-01-31T04:18:35;98283.59;;;-1.96;88.73
42603;BME280;28233;55.748;48.752;2023-01-31T04:20:39;98282.25;;;-1.93;88.52
42603;BME280;28233;55.748;48.752;2023-01-31T04:22:42;98296.53;;;-1.98;87.52
42603;BME280;28233;55.748;48.752;2023-01-31T04:24:45;98278.78;;;-1.99;87.00
42603;BME280;28233;55.748;48.752;2023-01-31T04:26:47;98279.59;;;-2.03;85.88
42603;BME280;28233;55.748;48.752;2023-01-31T04:28:50;98282.81;;;-2.06;86.12
42603;BME280;28233;55.748;48.752;2023-01-31T04:30:54;98288.22;;;-2.06;85.34
42603;BME280;28233;55.748;48.752;2023-01-31T04:32:57;98277.16;;;-2.05;86.03
42603;BME280;28233;55.748;48.752;2023-01-31T04:34:59;98284.97;;;-2.08;86.01
42603;BME280;28233;55.748;48.752;2023-01-31T04:37:04;98296.53;;;-2.08;86.18
42603;BME280;28233;55.748;48.752;2023-01-31T04:39:09;98294.41;;;-2.11;85.55
42603;BME280;28233;55.748;48.752;2023-01-31T04:41:12;98290.06;;;-2.12;85.59
42603;BME280;28233;55.748;48.752;2023-01-31T04:43:15;98318.88;;;-2.13;85.04
42603;BME280;28233;55.748;48.752;2023-01-31T04:45:17;98294.91;;;-2.19;84.44
42603;BME280;28233;55.748;48.752;2023-01-31T04:47:20;98295.47;;;-2.17;84.86
42603;BME280;28233;55.748;48.752;2023-01-31T04:49:23;98311.88;;;-2.19;85.12
42603;BME280;28233;55.748;48.752;2023-01-31T04:51:25;98301.63;;;-2.17;85.42
42603;BME280;28233;55.748;48.752;2023-01-31T04:53:28;98315.63;;;-2.15;85.10
42603;BME280;28233;55.748;48.752;2023-01-31T04:55:31;98319.69;;;-2.17;85.16
42603;BME280;28233;55.748;48.752;2023-01-31T04:57:34;98321.56;;;-2.18;85.06
42603;BME280;28233;55.748;48.752;2023-01-31T04:59:36;98311.59;;;-2.17;84.49
42603;BME280;28233;55.748;48.752;2023-01-31T05:01:39;98324.81;;;-2.21;85.29
42603;BME280;28233;55.748;48.752;2023-01-31T05:03:43;98320.75;;;-2.18;85.19
42603;BME280;28233;55.748;48.752;2023-01-31T05:05:49;98312.16;;;-2.20;85.40
42603;BME280;28233;55.748;48.752;2023-01-31T05:07:52;98324.00;;;-2.16;85.19
42603;BME280;28233;55.748;48.752;2023-01-31T05:09:55;98316.72;;;-2.16;85.80
42603;BME280;28233;55.748;48.752;2023-01-31T05:11:57;98331.53;;;-2.13;85.46
42603;BME280;28233;55.748;48.752;2023-01-31T05:14:00;98329.63;;;-2.13;85.94
42603;BME280;28233;55.748;48.752;2023-01-31T05:16:10;98335.81;;;-2.12;85.53
42603;BME280;28233;55.748;48.752;2023-01-31T05:18:13;98339.34;;;-2.11;85.09
42603;BME280;28233;55.748;48.752;2023-01-31T05:20:16;98332.63;;;-2.09;85.54
42603;BME280;28233;55.748;48.752;2023-01-31T05:22:18;98325.59;;;-2.10;85.54
42603;BME280;28233;55.748;48.752;2023-01-31T05:24:26;98329.09;;;-2.09;85.52
42603;BME280;28233;55.748;48.752;2023-01-31T05:26:29;98326.69;;;-2.06;86.05
42603;BME280;28233;55.748;48.752;2023-01-31T05:28:32;98330.72;;;-2.03;86.06
42603;BME280;28233;55.748;48.752;2023-01-31T05:30:35;98325.09;;;-2.02;86.54
42603;BME280;28233;55.748;48.752;2023-01-31T05:32:38;98322.94;;;-2.00;86.56
42603;BME280;28233;55.748;48.752;2023-01-31T05:34:41;98327.78;;;-1.97;86.59
42603;BME280;28233;55.748;48.752;2023-01-31T05:36:44;98322.38;;;-1.97;86.19
42603;BME280;28233;55.748;48.752;2023-01-31T05:38:46;98327.75;;;-1.92;86.85
42603;BME280;28233;55.748;48.752;2023-01-31T05:40:50;98330.19;;;-1.85;86.90
42603;BME280;28233;55.748;48.752;2023-01-31T05:42:57;98327.75;;;-1.81;86.96
42603;BME280;28233;55.748;48.752;2023-01-31T05:45:03;98334.22;;;-1.77;87.00
42603;BME280;28233;55.748;48.752;2023-01-31T05:47:06;98335.84;;;-1.71;87.00
42603;BME280;28233;55.748;48.752;2023-01-31T05:49:08;98336.09;;;-1.67;86.93
42603;BME280;28233;55.748;48.752;2023-01-31T05:51:11;98322.38;;;-1.76;87.03
42603;BME280;28233;55.748;48.752;2023-01-31T05:53:14;98341.78;;;-1.69;87.43
42603;BME280;28233;55.748;48.752;2023-01-31T05:55:17;98335.56;;;-1.70;88.02
42603;BME280;28233;55.748;48.752;2023-01-31T05:57:20;98329.66;;;-1.66;88.04
42603;BME280;28233;55.748;48.752;2023-01-31T05:59:23;98327.19;;;-1.63;87.96
42603;BME280;28233;55.748;48.752;2023-01-31T06:01:28;98336.09;;;-1.52;87.73
42603;BME280;28233;55.748;48.752;2023-01-31T06:03:30;98336.63;;;-1.50;88.01
42603;BME280;28233;55.748;48.752;2023-01-31T06:05:33;98340.66;;;-1.47;89.41
42603;BME280;28233;55.748;48.752;2023-01-31T06:07:37;98332.03;;;-1.44;88.53
42603;BME280;28233;55.748;48.752;2023-01-31T06:09:40;98334.47;;;-1.43;89.42
42603;BME280;28233;55.748;48.752;2023-01-31T06:11:43;98335.25;;;-1.37;90.13
42603;BME280;28233;55.748;48.752;2023-01-31T06:13:46;98336.88;;;-1.31;90.01
42603;BME280;28233;55.748;48.752;2023-01-31T06:15:50;98337.41;;;-1.29;90.57
42603;BME280;28233;55.748;48.752;2023-01-31T06:17:53;98342.25;;;-1.31;90.42
42603;BME280;28233;55.748;48.752;2023-01-31T06:19:56;98340.91;;;-1.34;90.05
42603;BME280;28233;55.748;48.752;2023-01-31T06:21:58;98342.50;;;-1.33;90.44
42603;BME280;28233;55.748;48.752;2023-01-31T06:24:01;98345.50;;;-1.29;91.15
42603;BME280;28233;55.748;48.752;2023-01-31T06:26:04;98341.16;;;-1.30;91.31
42603;BME280;28233;55.748;48.752;2023-01-31T06:28:07;98346.00;;;-1.27;91.25
42603;BME280;28233;55.748;48.752;2023-01-31T06:30:10;98341.41;;;-1.21;91.31
42603;BME280;28233;55.748;48.752;2023-01-31T06:32:13;98346.53;;;-1.15;91.15
42603;BME280;28233;55.748;48.752;2023-01-31T06:34:16;98340.84;;;-1.13;92.04
42603;BME280;28233;55.748;48.752;2023-01-31T06:36:18;98343.00;;;-1.10;91.66
42603;BME280;28233;55.748;48.752;2023-01-31T06:38:21;98344.06;;;-1.06;91.79
42603;BME280;28233;55.748;48.752;2023-01-31T06:40:24;98358.59;;;-1.02;92.22
42603;BME280;28233;55.748;48.752;2023-01-31T06:42:27;98353.25;;;-1.07;91.57
42603;BME280;28233;55.748;48.752;2023-01-31T06:44:29;98352.16;;;-1.06;92.45
42603;BME280;28233;55.748;48.752;2023-01-31T06:46:34;98355.09;;;-1.02;92.23
42603;BME280;28233;55.748;48.752;2023-01-31T06:48:38;98356.72;;;-1.01;92.51
42603;BME280;28233;55.748;48.752;2023-01-31T06:50:41;98356.19;;;-0.98;92.11
42603;BME280;28233;55.748;48.752;2023-01-31T06:52:44;98361.03;;;-0.95;92.33
42603;BME280;28233;55.748;48.752;2023-01-31T06:54:46;98359.09;;;-0.90;92.49
42603;BME280;28233;55.748;48.752;2023-01-31T06:56:49;98356.94;;;-0.88;92.06
42603;BME280;28233;55.748;48.752;2023-01-31T06:58:51;98363.69;;;-0.90;92.38
42603;BME280;28233;55.748;48.752;2023-01-31T07:00:54;98357.50;;;-0.91;92.33
42603;BME280;28233;55.748;48.752;2023-01-31T07:02:58;98365.03;;;-0.88;92.44
42603;BME280;28233;55.748;48.752;2023-01-31T07:05:00;98362.34;;;-0.88;92.27
42603;BME280;28233;55.748;48.752;2023-01-31T07:07:04;98362.06;;;-0.86;91.97
42603;BME280;28233;55.748;48.752;2023-01-31T07:09:07;98366.38;;;-0.85;91.93
42603;BME280;28233;55.748;48.752;2023-01-31T07:11:09;98374.47;;;-0.85;92.34
42603;BME280;28233;55.748;48.752;2023-01-31T07:13:12;98375.00;;;-0.88;92.27
42603;BME280;28233;55.748;48.752;2023-01-31T07:15:15;98364.75;;;-0.86;91.74
42603;BME280;28233;55.748;48.752;2023-01-31T07:17:18;98362.31;;;-0.82;92.31
42603;BME280;28233;55.748;48.752;2023-01-31T07:19:22;98363.13;;;-0.82;91.89
42603;BME280;28233;55.748;48.752;2023-01-31T07:21:25;98365.00;;;-0.77;92.42
42603;BME280;28233;55.748;48.752;2023-01-31T07:23:27;98368.22;;;-0.75;92.19
42603;BME280;28233;55.748;48.752;2023-01-31T07:25:31;98369.28;;;-0.71;92.06
42603;BME280;28233;55.748;48.752;2023-01-31T07:27:35;98365.72;;;-0.61;91.98
42603;BME280;28233;55.748;48.752;2023-01-31T07:29:38;98368.97;;;-0.59;91.51
42603;BME280;28233;55.748;48.752;2023-01-31T07:31:40;98376.53;;;-0.56;91.30
42603;BME280;28233;55.748;48.752;2023-01-31T07:33:43;98375.13;;;-0.49;91.02
42603;BME280;28233;55.748;48.752;2023-01-31T07:35:46;98366.19;;;-0.39;91.12
42603;BME280;28233;55.748;48.752;2023-01-31T07:37:51;98372.63;;;-0.35;90.62
42603;BME280;28233;55.748;48.752;2023-01-31T07:39:54;98374.50;;;-0.35;89.84
42603;BME280;28233;55.748;48.752;2023-01-31T07:41:57;98368.28;;;-0.31;89.71
42603;BME280;28233;55.748;48.752;2023-01-31T07:43:59;98376.63;;;-0.27;89.31
42603;BME280;28233;55.748;48.752;2023-01-31T07:46:05;98378.19;;;-0.16;90.17
42603;BME280;28233;55.748;48.752;2023-01-31T07:48:10;98371.13;;;-0.12;89.31
42603;BME280;28233;55.748;48.752;2023-01-31T07:50:13;98377.06;;;-0.10;89.24
42603;BME280;28233;55.748;48.752;2023-01-31T07:52:16;98378.34;;;0.03;89.16
42603;BME280;28233;55.748;48.752;2023-01-31T07:54:18;98376.66;;;0.12;88.86
42603;BME280;28233;55.748;48.752;2023-01-31T07:56:21;98377.69;;;0.16;89.02
42603;BME280;28233;55.748;48.752;2023-01-31T07:58:24;98375.78;;;0.22;87.97
42603;BME280;28233;55.748;48.752;2023-01-31T08:00:26;98367.34;;;0.29;87.97
42603;BME280;28233;55.748;48.752;2023-01-31T08:02:48;98377.00;;;0.35;87.58
42603;BME280;28233;55.748;48.752;2023-01-31T08:05:09;98386.78;;;0.31;87.46
42603;BME280;28233;55.748;48.752;2023-01-31T08:07:15;98373.78;;;0.38;87.39
42603;BME280;28233;55.748;48.752;2023-01-31T08:09:18;98381.53;;;0.45;87.04
42603;BME280;28233;55.748;48.752;2023-01-31T08:11:21;98393.19;;;0.40;87.07
42603;BME280;28233;55.748;48.752;2023-01-31T08:13:23;98389.72;;;0.34;87.16
42603;BME280;28233;55.748;48.752;2023-01-31T08:15:28;98403.50;;;0.33;87.28
42603;BME280;28233;55.748;48.752;2023-01-31T08:17:30;98397.88;;;0.29;88.04
42603;BME280;28233;55.748;48.752;2023-01-31T08:19:34;98408.09;;;0.32;87.85
42603;BME280;28233;55.748;48.752;2023-01-31T08:21:37;98392.69;;;0.38;87.71
42603;BME280;28233;55.748;48.752;2023-01-31T08:23:40;98390.22;;;0.41;87.31
42603;BME280;28233;55.748;48.752;2023-01-31T08:25:43;98387.47;;;0.47;87.05
42603;BME280;28233;55.748;48.752;2023-01-31T08:27:46;98388.78;;;0.49;87.18
42603;BME280;28233;55.748;48.752;2023-01-31T08:29:49;98383.72;;;0.43;86.70
42603;BME280;28233;55.748;48.752;2023-01-31T08:31:52;98396.94;;;0.44;87.31
42603;BME280;28233;55.748;48.752;2023-01-31T08:33:55;98382.31;;;0.50;87.13
42603;BME280;28233;55.748;48.752;2023-01-31T08:36:13;98394.81;;;0.41;86.87
42603;BME280;28233;55.748;48.752;2023-01-31T08:38:17;98381.19;;;0.51;87.76
42603;BME280;28233;55.748;48.752;2023-01-31T08:40:20;98381.47;;;0.55;86.67
42603;BME280;28233;55.748;48.752;2023-01-31T08:42:23;98387.09;;;0.58;86.92
42603;BME280;28233;55.748;48.752;2023-01-31T08:44:25;98389.50;;;0.60;86.17
42603;BME280;28233;55.748;48.752;2023-01-31T08:46:34;98391.13;;;0.61;86.37
42603;BME280;28233;55.748;48.752;2023-01-31T08:48:37;98387.34;;;0.62;85.93
42603;BME280;28233;55.748;48.752;2023-01-31T08:50:41;98388.59;;;0.70;86.63
42603;BME280;28233;55.748;48.752;2023-01-31T08:52:43;98388.03;;;0.73;85.93
42603;BME280;28233;55.748;48.752;2023-01-31T08:54:46;98385.63;;;0.71;85.61
42603;BME280;28233;55.748;48.752;2023-01-31T08:56:48;98391.78;;;0.77;85.28
42603;BME280;28233;55.748;48.752;2023-01-31T08:58:52;98388.75;;;0.83;85.16
42603;BME280;28233;55.748;48.752;2023-01-31T09:01:00;98397.81;;;0.98;85.54
42603;BME280;28233;55.748;48.752;2023-01-31T09:03:04;98400.69;;;1.07;84.83
42603;BME280;28233;55.748;48.752;2023-01-31T09:05:28;98401.84;;;1.00;84.80
42603;BME280;28233;55.748;48.752;2023-01-31T09:07:32;98400.63;;;0.88;84.84
42603;BME280;28233;55.748;48.752;2023-01-31T09:09:35;98400.69;;;0.82;85.60
42603;BME280;28233;55.748;48.752;2023-01-31T09:11:38;98401.16;;;0.84;86.58
42603;BME280;28233;55.748;48.752;2023-01-31T09:13:41;98404.69;;;0.85;86.87
42603;BME280;28233;55.748;48.752;2023-01-31T09:15:44;98393.63;;;0.81;86.53
42603;BME280;28233;55.748;48.752;2023-01-31T09:17:46;98406.31;;;0.86;86.54
42603;BME280;28233;55.748;48.752;2023-01-31T09:19:49;98413.09;;;0.83;87.62
42603;BME280;28233;55.748;48.752;2023-01-31T09:21:52;98411.19;;;0.84;87.41
42603;BME280;28233;55.748;48.752;2023-01-31T09:23:59;98403.94;;;0.79;87.50
42603;BME280;28233;55.748;48.752;2023-01-31T09:26:04;98403.06;;;0.84;87.84
42603;BME280;28233;55.748;48.752;2023-01-31T09:28:07;98402.22;;;0.89;87.33
42603;BME280;28233;55.748;48.752;2023-01-31T09:30:10;98413.03;;;0.89;88.16
42603;BME280;28233;55.748;48.752;2023-01-31T09:32:13;98410.63;;;0.87;87.46
42603;BME280;28233;55.748;48.752;2023-01-31T09:34:15;98406.03;;;0.88;87.51
42603;BME280;28233;55.748;48.752;2023-01-31T09:36:20;98409.34;;;0.79;87.90
42603;BME280;28233;55.748;48.752;2023-01-31T09:38:24;98418.50;;;0.83;88.70
42603;BME280;28233;55.748;48.752;2023-01-31T09:40:31;98416.91;;;0.82;88.57
42603;BME280;28233;55.748;48.752;2023-01-31T09:42:40;98418.22;;;0.85;88.21
42603;BME280;28233;55.748;48.752;2023-01-31T09:44:51;98415.28;;;0.81;89.57
42603;BME280;28233;55.748;48.752;2023-01-31T09:49:18;98414.22;;;0.77;89.52
42603;BME280;28233;55.748;48.752;2023-01-31T09:51:23;98409.84;;;0.81;89.84
42603;BME280;28233;55.748;48.752;2023-01-31T09:53:32;98414.19;;;0.82;90.77
42603;BME280;28233;55.748;48.752;2023-01-31T09:55:47;98413.63;;;0.86;90.48
42603;BME280;28233;55.748;48.752;2023-01-31T09:58:14;98412.50;;;0.87;90.96
42603;BME280;28233;55.748;48.752;2023-01-31T10:00:26;98413.88;;;0.84;90.95
42603;BME280;28233;55.748;48.752;2023-01-31T10:03:40;98417.41;;;0.84;90.95
42603;BME280;28233;55.748;48.752;2023-01-31T10:05:56;98417.41;;;0.84;91.73
42603;BME280;28233;55.748;48.752;2023-01-31T10:07:42;98419.06;;;0.80;91.69
42603;BME280;28233;55.748;48.752;2023-01-31T10:11:59;98407.63;;;0.89;91.97
42603;BME280;28233;55.748;48.752;2023-01-31T10:16:45;98405.63;;;0.70;92.81
42603;BME280;28233;55.748;48.752;2023-01-31T10:18:58;98405.94;;;0.69;93.48
42603;BME280;28233;55.748;48.752;2023-01-31T10:21:15;98409.50;;;0.64;93.80
42603;BME280;28233;55.748;48.752;2023-01-31T10:23:23;98413.31;;;0.58;93.75
42603;BME280;28233;55.748;48.752;2023-01-31T10:25:43;98406.84;;;0.54;94.02
42603;BME280;28233;55.748;48.752;2023-01-31T10:27:55;98414.69;;;0.55;94.00
42603;BME280;28233;55.748;48.752;2023-01-31T10:30:02;98410.13;;;0.51;93.73
42603;BME280;28233;55.748;48.752;2023-01-31T10:32:30;98412.84;;;0.51;93.64
42603;BME280;28233;55.748;48.752;2023-01-31T10:34:44;98399.38;;;0.46;94.46
42603;BME280;28233;55.748;48.752;2023-01-31T10:36:54;98400.44;;;0.45;94.57
42603;BME280;28233;55.748;48.752;2023-01-31T10:39:20;98403.72;;;0.41;94.88
42603;BME280;28233;55.748;48.752;2023-01-31T10:41:58;98404.25;;;0.44;94.34
42603;BME280;28233;55.748;48.752;2023-01-31T10:44:17;98399.97;;;0.37;94.72
42603;BME280;28233;55.748;48.752;2023-01-31T10:46:22;98401.06;;;0.36;95.00
42603;BME280;28233;55.748;48.752;2023-01-31T10:48:28;98402.97;;;0.36;94.44
42603;BME280;28233;55.748;48.752;2023-01-31T10:50:53;98396.75;;;0.35;95.19
42603;BME280;28233;55.748;48.752;2023-01-31T10:55:31;98403.75;;;0.36;95.68
42603;BME280;28233;55.748;48.752;2023-01-31T10:57:40;98397.56;;;0.36;95.18
42603;BME280;28233;55.748;48.752;2023-01-31T10:59:45;98402.16;;;0.35;95.58
42603;BME280;28233;55.748;48.752;2023-01-31T11:01:49;98392.19;;;0.31;95.66
42603;BME280;28233;55.748;48.752;2023-01-31T11:03:54;98405.19;;;0.29;95.04
42603;BME280;28233;55.748;48.752;2023-01-31T11:05:57;98409.00;;;0.23;95.24
42603;BME280;28233;55.748;48.752;2023-01-31T11:08:10;98396.06;;;0.19;95.23
42603;BME280;28233;55.748;48.752;2023-01-31T11:10:22;98421.69;;;0.22;95.01
42603;BME280;28233;55.748;48.752;2023-01-31T11:12:51;98413.09;;;0.15;95.73
42603;BME280;28233;55.748;48.752;2023-01-31T11:15:07;98426.03;;;0.18;95.62
42603;BME280;28233;55.748;48.752;2023-01-31T11:17:20;98409.06;;;0.12;95.29
42603;BME280;28233;55.748;48.752;2023-01-31T11:19:36;98425.03;;;0.09;96.16
42603;BME280;28233;55.748;48.752;2023-01-31T11:21:48;98425.81;;;0.09;95.56
42603;BME280;28233;55.748;48.752;2023-01-31T11:24:04;98424.75;;;0.10;95.67
42603;BME280;28233;55.748;48.752;2023-01-31T11:26:07;98404.03;;;0.01;95.80
42603;BME280;28233;55.748;48.752;2023-01-31T11:28:24;98424.53;;;0.02;95.77
42603;BME280;28233;55.748;48.752;2023-01-31T11:30:38;98428.34;;;-0.05;96.00
42603;BME280;28233;55.748;48.752;2023-01-31T11:32:42;98422.13;;;-0.05;96.31
42603;BME280;28233;55.748;48.752;2023-01-31T11:35:04;98438.31;;;-0.05;96.59